Slayton, MN

11:31 PM CDT on May 24, 2015 (GMT -0500)
Slayton | | Change Station
CLOSE
Current Station
Airport
Location: Slayton,
Elevation: 1624 ft
Nearby Weather Stations

Elev 1624 ft 43.99 °N, 95.78 °W | Updated 18 minutes ago

Drizzle
Drizzle
57 °F
Feels Like 57 °F
N
0
Wind Variable Wind from North

Today
High -- | Low -- °F
--% Chance of Precip.
Yesterday
High -- | Low -- °F
Precip. -- in
5:48 AM 8:51 PM
Waxing Crescent, 45% visible
Pressure 29.78 in
Visibility 2.5 miles
Clouds Overcast 300 ft
Dew Point 57 °F
Humidity 100%
Rainfall 0.27 in
Snow Depth Not available.
UV 0 out of 12
Pollen 3.00 out of 12
Air Quality Not available.
Flu Activity Sporadic
METAR KDVP 250413Z AUTO 00000KT 2 1/2SM DZ OVC003 14/14 A2978 RMK AO2 T01400140

More Conditions Fewer Conditions

Pressure 29.78 in
Visibility 2.5 miles
Clouds Overcast 300 ft
Dew Point 57 °F
Humidity 100%
Rainfall 0.27 in
Snow Depth Not available.
UV 0 out of 12
Pollen 3.00 out of 12
Air Quality Not available.
Flu Activity Sporadic
METAR KDVP 250413Z AUTO 00000KT 2 1/2SM DZ OVC003 14/14 A2978 RMK AO2 T01400140

More Conditions Fewer Conditions

10-Day Weather Forecast

Almanac

Astronomy

May. 24, 2015 Rise Set
Actual Time
Civil Twilight
Nautical Twilight
Astronomical Twilight
Moon
Length of Visible Light
Length of Day
Tomorrow will be .
, % of the Moon is Illuminated

Today's Extremes

State Highs State Lows

Community

WunderPhotos

Upload Photos

1,823,954 photos uploaded!

WunderBlogs® & News

Nearby

Air Quality

  Air Quality AQ Index Pollutant
Not available.

Snow Depth

Station Depth Elevation

Earthquake Activity

City Distance Mag. Time & Date
Minimum magnitude displayed is 2.5.

Coastal Water Temperatures

Place Temperature

Stations

Nearby Weather Stations

Station Location Temp. Windchill Dew Point Humidity Wind Precip. Elev Updated Type